sensor_id;sensor_type;location;lat;lon;timestamp;noise_LAeq;noise_LA_min;noise_LA_max;noise_LA01;noise_LA95
70245;Laerm;57637;49.272;8.590;2023-05-24T00:01:36;44.98;40.86;49.30;;
70245;Laerm;57637;49.272;8.590;2023-05-24T00:04:02;45.25;41.83;52.36;;
70245;Laerm;57637;49.272;8.590;2023-05-24T00:06:28;44.77;40.64;51.33;;
70245;Laerm;57637;49.272;8.590;2023-05-24T00:08:54;45.81;40.98;54.64;;
70245;Laerm;57637;49.272;8.590;2023-05-24T00:11:19;46.33;42.31;51.17;;
70245;Laerm;57637;49.272;8.590;2023-05-24T00:13:46;45.92;41.73;51.46;;
70245;Laerm;57637;49.272;8.590;2023-05-24T00:16:12;46.81;42.48;53.90;;
70245;Laerm;57637;49.272;8.590;2023-05-24T00:18:37;45.51;41.07;50.76;;
70245;Laerm;57637;49.272;8.590;2023-05-24T00:21:06;45.79;41.31;50.52;;
70245;Laerm;57637;49.272;8.590;2023-05-24T00:23:32;45.19;41.14;53.58;;
70245;Laerm;57637;49.272;8.590;2023-05-24T00:25:57;44.91;40.42;49.79;;
70245;Laerm;57637;49.272;8.590;2023-05-24T00:28:23;44.58;40.15;52.36;;
70245;Laerm;57637;49.272;8.590;2023-05-24T00:30:48;45.43;41.72;50.43;;
70245;Laerm;57637;49.272;8.590;2023-05-24T00:33:15;46.10;41.94;52.16;;
70245;Laerm;57637;49.272;8.590;2023-05-24T00:35:40;46.50;41.50;51.58;;
70245;Laerm;57637;49.272;8.590;2023-05-24T00:38:05;46.29;42.38;50.95;;
70245;Laerm;57637;49.272;8.590;2023-05-24T00:40:31;46.40;42.11;52.25;;
70245;Laerm;57637;49.272;8.590;2023-05-24T00:42:56;46.31;42.05;52.08;;
70245;Laerm;57637;49.272;8.590;2023-05-24T00:45:21;46.41;42.03;51.36;;
70245;Laerm;57637;49.272;8.590;2023-05-24T00:47:47;46.00;42.40;53.86;;
70245;Laerm;57637;49.272;8.590;2023-05-24T00:50:12;46.85;41.34;51.90;;
70245;Laerm;57637;49.272;8.590;2023-05-24T00:52:40;46.29;41.02;50.88;;
70245;Laerm;57637;49.272;8.590;2023-05-24T00:55:06;46.27;42.79;50.94;;
70245;Laerm;57637;49.272;8.590;2023-05-24T00:57:32;46.64;42.74;53.79;;
70245;Laerm;57637;49.272;8.590;2023-05-24T00:59:58;46.88;43.19;51.57;;
70245;Laerm;57637;49.272;8.590;2023-05-24T01:02:23;46.94;43.12;53.03;;
70245;Laerm;57637;49.272;8.590;2023-05-24T01:04:49;46.47;42.77;52.00;;
70245;Laerm;57637;49.272;8.590;2023-05-24T01:07:25;45.73;41.70;51.27;;
70245;Laerm;57637;49.272;8.590;2023-05-24T01:10:24;44.11;40.59;49.53;;
70245;Laerm;57637;49.272;8.590;2023-05-24T01:13:03;45.65;40.71;51.81;;
70245;Laerm;57637;49.272;8.590;2023-05-24T01:18:22;44.69;40.75;50.89;;
70245;Laerm;57637;49.272;8.590;2023-05-24T01:20:55;45.44;41.98;49.42;;
70245;Laerm;57637;49.272;8.590;2023-05-24T01:28:55;44.42;39.98;50.39;;
70245;Laerm;57637;49.272;8.590;2023-05-24T01:31:21;44.81;40.58;48.92;;
70245;Laerm;57637;49.272;8.590;2023-05-24T01:33:47;44.93;41.15;49.03;;
70245;Laerm;57637;49.272;8.590;2023-05-24T01:36:12;45.56;41.25;55.26;;
70245;Laerm;57637;49.272;8.590;2023-05-24T01:38:38;45.26;41.92;57.90;;
70245;Laerm;57637;49.272;8.590;2023-05-24T01:44:02;46.35;41.84;52.19;;
70245;Laerm;57637;49.272;8.590;2023-05-24T01:46:36;45.76;41.63;52.54;;
70245;Laerm;57637;49.272;8.590;2023-05-24T01:49:19;46.22;41.68;53.67;;
70245;Laerm;57637;49.272;8.590;2023-05-24T01:51:59;47.02;41.54;57.75;;
70245;Laerm;57637;49.272;8.590;2023-05-24T01:54:33;45.73;41.92;52.52;;
70245;Laerm;57637;49.272;8.590;2023-05-24T01:57:04;45.80;40.57;54.03;;
70245;Laerm;57637;49.272;8.590;2023-05-24T01:59:32;45.66;41.13;50.63;;
70245;Laerm;57637;49.272;8.590;2023-05-24T02:01:58;45.96;41.64;54.06;;
70245;Laerm;57637;49.272;8.590;2023-05-24T02:04:23;46.75;42.09;53.42;;
70245;Laerm;57637;49.272;8.590;2023-05-24T02:06:49;45.69;41.66;51.42;;
70245;Laerm;57637;49.272;8.590;2023-05-24T02:09:17;46.72;42.90;50.90;;
70245;Laerm;57637;49.272;8.590;2023-05-24T02:11:43;46.31;41.18;50.22;;
70245;Laerm;57637;49.272;8.590;2023-05-24T02:14:08;45.40;41.48;53.35;;
70245;Laerm;57637;49.272;8.590;2023-05-24T02:16:33;46.60;41.70;51.44;;
70245;Laerm;57637;49.272;8.590;2023-05-24T02:19:07;45.78;41.35;50.98;;
70245;Laerm;57637;49.272;8.590;2023-05-24T02:21:32;45.44;41.66;50.34;;
70245;Laerm;57637;49.272;8.590;2023-05-24T02:23:58;44.73;40.54;51.04;;
70245;Laerm;57637;49.272;8.590;2023-05-24T02:26:23;44.77;40.81;53.26;;
70245;Laerm;57637;49.272;8.590;2023-05-24T02:28:48;44.69;41.04;50.65;;
70245;Laerm;57637;49.272;8.590;2023-05-24T02:31:14;44.85;41.20;51.97;;
70245;Laerm;57637;49.272;8.590;2023-05-24T02:33:39;44.07;39.85;51.70;;
70245;Laerm;57637;49.272;8.590;2023-05-24T02:36:05;46.61;39.95;62.72;;
70245;Laerm;57637;49.272;8.590;2023-05-24T02:38:30;49.29;39.30;67.96;;
70245;Laerm;57637;49.272;8.590;2023-05-24T02:40:56;48.49;39.89;64.92;;
70245;Laerm;57637;49.272;8.590;2023-05-24T02:43:21;48.13;40.39;61.54;;
70245;Laerm;57637;49.272;8.590;2023-05-24T02:45:46;50.58;40.62;69.79;;
70245;Laerm;57637;49.272;8.590;2023-05-24T02:48:12;53.29;39.41;70.78;;
70245;Laerm;57637;49.272;8.590;2023-05-24T02:50:37;54.20;39.49;72.19;;
70245;Laerm;57637;49.272;8.590;2023-05-24T02:53:02;53.78;41.25;72.52;;
70245;Laerm;57637;49.272;8.590;2023-05-24T02:55:28;54.58;40.50;71.35;;
70245;Laerm;57637;49.272;8.590;2023-05-24T02:57:54;52.87;40.34;67.95;;
70245;Laerm;57637;49.272;8.590;2023-05-24T03:00:19;53.24;41.50;68.73;;
70245;Laerm;57637;49.272;8.590;2023-05-24T03:02:45;52.79;40.47;67.97;;
70245;Laerm;57637;49.272;8.590;2023-05-24T03:05:12;52.39;40.96;66.19;;
70245;Laerm;57637;49.272;8.590;2023-05-24T03:07:37;46.27;41.01;56.88;;
70245;Laerm;57637;49.272;8.590;2023-05-24T03:10:03;46.77;40.84;60.13;;
70245;Laerm;57637;49.272;8.590;2023-05-24T03:12:28;49.23;41.91;65.28;;
70245;Laerm;57637;49.272;8.590;2023-05-24T03:14:53;55.61;42.59;69.50;;
70245;Laerm;57637;49.272;8.590;2023-05-24T03:17:19;57.55;42.49;74.60;;
70245;Laerm;57637;49.272;8.590;2023-05-24T03:19:47;59.79;42.79;74.37;;
70245;Laerm;57637;49.272;8.590;2023-05-24T03:22:12;60.49;43.37;73.33;;
70245;Laerm;57637;49.272;8.590;2023-05-24T03:24:38;57.34;42.75;70.39;;
70245;Laerm;57637;49.272;8.590;2023-05-24T03:27:05;59.49;44.29;73.78;;
70245;Laerm;57637;49.272;8.590;2023-05-24T03:29:30;61.68;44.06;75.78;;
70245;Laerm;57637;49.272;8.590;2023-05-24T03:31:56;61.01;43.63;75.54;;
70245;Laerm;57637;49.272;8.590;2023-05-24T03:34:22;58.15;44.15;75.11;;
70245;Laerm;57637;49.272;8.590;2023-05-24T03:36:47;56.73;43.11;74.07;;
70245;Laerm;57637;49.272;8.590;2023-05-24T03:39:12;57.75;43.42;73.36;;
70245;Laerm;57637;49.272;8.590;2023-05-24T03:41:38;58.01;43.38;73.86;;
70245;Laerm;57637;49.272;8.590;2023-05-24T03:44:03;53.23;42.78;70.82;;
70245;Laerm;57637;49.272;8.590;2023-05-24T03:46:29;51.87;43.34;64.54;;
70245;Laerm;57637;49.272;8.590;2023-05-24T03:48:54;53.73;45.20;67.64;;
70245;Laerm;57637;49.272;8.590;2023-05-24T03:51:20;51.90;44.19;70.18;;
70245;Laerm;57637;49.272;8.590;2023-05-24T03:53:47;51.02;44.76;65.54;;
70245;Laerm;57637;49.272;8.590;2023-05-24T03:56:13;50.69;44.58;67.79;;
70245;Laerm;57637;49.272;8.590;2023-05-24T03:58:38;48.40;44.74;56.55;;
70245;Laerm;57637;49.272;8.590;2023-05-24T04:01:03;50.04;45.15;61.72;;
70245;Laerm;57637;49.272;8.590;2023-05-24T04:03:29;53.07;45.53;65.82;;
70245;Laerm;57637;49.272;8.590;2023-05-24T04:05:54;51.63;46.84;65.70;;
70245;Laerm;57637;49.272;8.590;2023-05-24T04:08:20;55.86;45.68;73.88;;
70245;Laerm;57637;49.272;8.590;2023-05-24T04:10:45;48.71;44.67;56.71;;
70245;Laerm;57637;49.272;8.590;2023-05-24T04:13:10;48.74;44.76;66.75;;
70245;Laerm;57637;49.272;8.590;2023-05-24T04:15:36;49.80;44.16;66.33;;
70245;Laerm;57637;49.272;8.590;2023-05-24T04:18:04;52.02;45.33;65.00;;
70245;Laerm;57637;49.272;8.590;2023-05-24T04:20:30;51.63;44.97;64.81;;
70245;Laerm;57637;49.272;8.590;2023-05-24T04:22:56;50.51;44.16;68.17;;
70245;Laerm;57637;49.272;8.590;2023-05-24T04:25:21;48.75;44.43;64.66;;
70245;Laerm;57637;49.272;8.590;2023-05-24T04:27:47;53.47;43.81;66.84;;
70245;Laerm;57637;49.272;8.590;2023-05-24T04:30:13;50.36;43.51;65.02;;
70245;Laerm;57637;49.272;8.590;2023-05-24T04:32:40;48.09;43.92;61.70;;
70245;Laerm;57637;49.272;8.590;2023-05-24T04:35:06;47.83;43.51;60.23;;
70245;Laerm;57637;49.272;8.590;2023-05-24T04:37:32;49.12;43.72;67.49;;
70245;Laerm;57637;49.272;8.590;2023-05-24T04:39:57;49.89;44.32;69.07;;
70245;Laerm;57637;49.272;8.590;2023-05-24T04:42:23;48.04;43.34;61.69;;
70245;Laerm;57637;49.272;8.590;2023-05-24T04:44:48;47.78;43.21;62.83;;
70245;Laerm;57637;49.272;8.590;2023-05-24T04:47:13;48.04;43.49;64.59;;
70245;Laerm;57637;49.272;8.590;2023-05-24T04:49:39;47.46;43.79;60.82;;
70245;Laerm;57637;49.272;8.590;2023-05-24T04:52:05;48.47;44.35;65.20;;
70245;Laerm;57637;49.272;8.590;2023-05-24T04:54:31;47.81;43.19;58.17;;
70245;Laerm;57637;49.272;8.590;2023-05-24T04:56:56;47.90;43.24;65.02;;
70245;Laerm;57637;49.272;8.590;2023-05-24T04:59:22;46.77;40.59;59.09;;
70245;Laerm;57637;49.272;8.590;2023-05-24T05:01:47;46.50;41.32;55.02;;
70245;Laerm;57637;49.272;8.590;2023-05-24T05:04:12;57.79;42.34;71.65;;
70245;Laerm;57637;49.272;8.590;2023-05-24T05:06:38;59.10;41.74;73.75;;
70245;Laerm;57637;49.272;8.590;2023-05-24T05:09:07;50.05;41.41;64.22;;
70245;Laerm;57637;49.272;8.590;2023-05-24T05:11:34;47.21;41.20;62.67;;
70245;Laerm;57637;49.272;8.590;2023-05-24T05:13:59;46.34;42.40;53.95;;
70245;Laerm;57637;49.272;8.590;2023-05-24T05:16:25;48.14;42.46;63.72;;
70245;Laerm;57637;49.272;8.590;2023-05-24T05:18:50;52.89;43.12;71.79;;
70245;Laerm;57637;49.272;8.590;2023-05-24T05:21:16;49.28;42.85;59.86;;
70245;Laerm;57637;49.272;8.590;2023-05-24T05:23:41;47.22;43.35;57.53;;
70245;Laerm;57637;49.272;8.590;2023-05-24T05:26:07;46.32;42.12;61.12;;
70245;Laerm;57637;49.272;8.590;2023-05-24T05:28:32;45.98;41.73;57.93;;
70245;Laerm;57637;49.272;8.590;2023-05-24T05:30:57;47.29;42.38;60.07;;
70245;Laerm;57637;49.272;8.590;2023-05-24T05:33:23;47.07;42.81;56.90;;
70245;Laerm;57637;49.272;8.590;2023-05-24T05:35:48;49.61;42.12;62.21;;
70245;Laerm;57637;49.272;8.590;2023-05-24T05:38:14;46.98;41.80;60.76;;
70245;Laerm;57637;49.272;8.590;2023-05-24T05:40:40;48.59;40.78;63.12;;
70245;Laerm;57637;49.272;8.590;2023-05-24T05:43:05;48.78;42.49;62.32;;
70245;Laerm;57637;49.272;8.590;2023-05-24T05:45:32;51.32;42.29;69.09;;
70245;Laerm;57637;49.272;8.590;2023-05-24T05:47:57;47.95;42.20;70.38;;
70245;Laerm;57637;49.272;8.590;2023-05-24T05:50:23;47.76;42.95;68.27;;
70245;Laerm;57637;49.272;8.590;2023-05-24T05:52:48;48.37;42.75;62.63;;
70245;Laerm;57637;49.272;8.590;2023-05-24T05:55:14;47.50;42.60;62.52;;
70245;Laerm;57637;49.272;8.590;2023-05-24T05:57:40;46.70;41.45;59.19;;
70245;Laerm;57637;49.272;8.590;2023-05-24T06:00:05;47.26;41.75;59.57;;
70245;Laerm;57637;49.272;8.590;2023-05-24T06:02:31;48.18;40.06;63.68;;
70245;Laerm;57637;49.272;8.590;2023-05-24T06:04:56;46.64;40.10;60.39;;
70245;Laerm;57637;49.272;8.590;2023-05-24T06:07:22;47.76;40.61;61.67;;
70245;Laerm;57637;49.272;8.590;2023-05-24T06:09:48;46.64;40.81;59.76;;
70245;Laerm;57637;49.272;8.590;2023-05-24T06:12:13;46.59;40.47;57.17;;
70245;Laerm;57637;49.272;8.590;2023-05-24T06:14:39;46.27;40.81;61.33;;
70245;Laerm;57637;49.272;8.590;2023-05-24T06:17:04;47.56;40.43;61.52;;
70245;Laerm;57637;49.272;8.590;2023-05-24T06:19:30;46.52;41.38;60.47;;
70245;Laerm;57637;49.272;8.590;2023-05-24T06:21:57;44.93;40.44;62.64;;
70245;Laerm;57637;49.272;8.590;2023-05-24T06:24:23;48.21;41.41;64.38;;
70245;Laerm;57637;49.272;8.590;2023-05-24T06:26:50;47.12;40.68;60.50;;
70245;Laerm;57637;49.272;8.590;2023-05-24T06:29:17;47.50;41.57;60.36;;
70245;Laerm;57637;49.272;8.590;2023-05-24T06:31:44;48.99;41.37;61.49;;
70245;Laerm;57637;49.272;8.590;2023-05-24T06:34:14;50.44;42.23;62.61;;
70245;Laerm;57637;49.272;8.590;2023-05-24T06:36:45;50.93;41.61;65.93;;
70245;Laerm;57637;49.272;8.590;2023-05-24T06:39:13;49.94;42.88;74.42;;
70245;Laerm;57637;49.272;8.590;2023-05-24T06:41:38;50.08;42.09;67.36;;
70245;Laerm;57637;49.272;8.590;2023-05-24T06:44:04;47.24;42.15;60.67;;
70245;Laerm;57637;49.272;8.590;2023-05-24T06:46:34;47.74;41.09;66.32;;
70245;Laerm;57637;49.272;8.590;2023-05-24T06:48:59;50.82;40.80;76.66;;
70245;Laerm;57637;49.272;8.590;2023-05-24T06:51:25;49.54;42.41;70.11;;
70245;Laerm;57637;49.272;8.590;2023-05-24T06:53:51;48.58;40.96;63.88;;
70245;Laerm;57637;49.272;8.590;2023-05-24T06:56:17;50.90;40.42;68.90;;
70245;Laerm;57637;49.272;8.590;2023-05-24T06:58:42;52.67;40.21;71.98;;
70245;Laerm;57637;49.272;8.590;2023-05-24T07:01:08;50.64;40.86;70.07;;
70245;Laerm;57637;49.272;8.590;2023-05-24T07:03:34;45.94;39.64;60.21;;
70245;Laerm;57637;49.272;8.590;2023-05-24T07:05:59;48.46;40.85;65.82;;
70245;Laerm;57637;49.272;8.590;2023-05-24T07:08:26;49.53;41.66;69.45;;
70245;Laerm;57637;49.272;8.590;2023-05-24T07:10:52;48.98;41.34;65.06;;
70245;Laerm;57637;49.272;8.590;2023-05-24T07:13:18;46.16;41.28;58.77;;
70245;Laerm;57637;49.272;8.590;2023-05-24T07:15:45;50.31;41.71;67.13;;
70245;Laerm;57637;49.272;8.590;2023-05-24T07:18:11;47.59;41.54;65.71;;
70245;Laerm;57637;49.272;8.590;2023-05-24T07:20:36;49.56;41.11;66.72;;
70245;Laerm;57637;49.272;8.590;2023-05-24T07:23:02;53.06;41.66;75.65;;
70245;Laerm;57637;49.272;8.590;2023-05-24T07:25:28;52.02;42.23;80.26;;
70245;Laerm;57637;49.272;8.590;2023-05-24T07:27:54;49.35;41.00;77.55;;
70245;Laerm;57637;49.272;8.590;2023-05-24T07:30:19;47.27;40.34;59.58;;
70245;Laerm;57637;49.272;8.590;2023-05-24T07:32:44;48.62;39.59;63.97;;
70245;Laerm;57637;49.272;8.590;2023-05-24T07:35:10;50.07;41.76;64.02;;
70245;Laerm;57637;49.272;8.590;2023-05-24T07:37:39;46.95;41.78;61.80;;
70245;Laerm;57637;49.272;8.590;2023-05-24T07:40:05;45.80;40.71;58.50;;
70245;Laerm;57637;49.272;8.590;2023-05-24T07:42:37;46.26;41.55;60.14;;
70245;Laerm;57637;49.272;8.590;2023-05-24T07:45:04;47.05;41.84;59.72;;
70245;Laerm;57637;49.272;8.590;2023-05-24T07:47:31;46.86;40.97;56.80;;
70245;Laerm;57637;49.272;8.590;2023-05-24T07:49:56;48.04;41.71;63.50;;
70245;Laerm;57637;49.272;8.590;2023-05-24T07:52:21;47.59;40.91;57.48;;
70245;Laerm;57637;49.272;8.590;2023-05-24T07:54:47;47.36;40.82;58.59;;
70245;Laerm;57637;49.272;8.590;2023-05-24T07:57:13;48.17;38.25;65.02;;
70245;Laerm;57637;49.272;8.590;2023-05-24T07:59:44;48.59;38.10;64.36;;
70245;Laerm;57637;49.272;8.590;2023-05-24T08:02:09;44.44;39.46;60.73;;
70245;Laerm;57637;49.272;8.590;2023-05-24T08:04:36;52.03;39.50;71.06;;
70245;Laerm;57637;49.272;8.590;2023-05-24T08:07:01;53.85;40.70;66.70;;
70245;Laerm;57637;49.272;8.590;2023-05-24T08:09:28;48.78;39.03;66.55;;
70245;Laerm;57637;49.272;8.590;2023-05-24T08:11:54;46.70;38.03;62.21;;
70245;Laerm;57637;49.272;8.590;2023-05-24T08:14:21;43.62;38.19;57.47;;
70245;Laerm;57637;49.272;8.590;2023-05-24T08:16:47;42.07;36.30;55.61;;
70245;Laerm;57637;49.272;8.590;2023-05-24T08:19:12;44.22;37.42;58.87;;
70245;Laerm;57637;49.272;8.590;2023-05-24T08:21:37;44.83;37.55;58.09;;
70245;Laerm;57637;49.272;8.590;2023-05-24T08:24:03;48.05;36.70;74.77;;
70245;Laerm;57637;49.272;8.590;2023-05-24T08:26:28;50.32;36.90;78.14;;
70245;Laerm;57637;49.272;8.590;2023-05-24T08:28:53;54.45;37.95;75.67;;
70245;Laerm;57637;49.272;8.590;2023-05-24T08:31:19;45.21;37.87;58.60;;
70245;Laerm;57637;49.272;8.590;2023-05-24T08:33:46;45.99;39.01;60.38;;
70245;Laerm;57637;49.272;8.590;2023-05-24T08:36:14;44.72;38.39;58.04;;
70245;Laerm;57637;49.272;8.590;2023-05-24T08:38:40;45.87;39.12;61.88;;
70245;Laerm;57637;49.272;8.590;2023-05-24T08:41:06;48.50;40.12;68.34;;
70245;Laerm;57637;49.272;8.590;2023-05-24T08:43:32;47.01;40.08;61.70;;
70245;Laerm;57637;49.272;8.590;2023-05-24T08:46:00;45.67;39.17;58.01;;
70245;Laerm;57637;49.272;8.590;2023-05-24T08:48:27;49.04;40.49;66.74;;
70245;Laerm;57637;49.272;8.590;2023-05-24T08:50:53;46.27;39.44;63.05;;
70245;Laerm;57637;49.272;8.590;2023-05-24T08:53:19;45.17;39.33;59.86;;
70245;Laerm;57637;49.272;8.590;2023-05-24T08:55:47;48.41;40.26;65.15;;
70245;Laerm;57637;49.272;8.590;2023-05-24T08:58:14;46.94;39.92;57.51;;
70245;Laerm;57637;49.272;8.590;2023-05-24T09:00:40;46.73;40.15;60.04;;
70245;Laerm;57637;49.272;8.590;2023-05-24T09:03:06;44.68;39.17;58.16;;
70245;Laerm;57637;49.272;8.590;2023-05-24T09:05:32;45.46;40.28;57.95;;
70245;Laerm;57637;49.272;8.590;2023-05-24T09:07:59;46.41;39.87;61.46;;
70245;Laerm;57637;49.272;8.590;2023-05-24T09:10:25;49.12;40.40;60.89;;
70245;Laerm;57637;49.272;8.590;2023-05-24T09:12:56;46.43;39.79;62.44;;
70245;Laerm;57637;49.272;8.590;2023-05-24T09:15:22;46.18;39.28;71.44;;
70245;Laerm;57637;49.272;8.590;2023-05-24T09:17:48;45.13;39.05;58.87;;
70245;Laerm;57637;49.272;8.590;2023-05-24T09:20:13;46.02;40.23;58.88;;
70245;Laerm;57637;49.272;8.590;2023-05-24T09:22:42;48.52;40.09;66.06;;
70245;Laerm;57637;49.272;8.590;2023-05-24T09:25:09;48.22;40.23;60.15;;
70245;Laerm;57637;49.272;8.590;2023-05-24T09:27:36;46.14;38.03;59.45;;
70245;Laerm;57637;49.272;8.590;2023-05-24T09:30:05;45.53;38.52;55.56;;
70245;Laerm;57637;49.272;8.590;2023-05-24T09:32:32;44.88;38.75;58.54;;
70245;Laerm;57637;49.272;8.590;2023-05-24T09:34:58;47.36;39.92;60.66;;
70245;Laerm;57637;49.272;8.590;2023-05-24T09:37:25;47.61;38.14;66.88;;
70245;Laerm;57637;49.272;8.590;2023-05-24T09:39:54;45.62;39.30;55.81;;
70245;Laerm;57637;49.272;8.590;2023-05-24T09:42:22;45.75;39.41;62.21;;
70245;Laerm;57637;49.272;8.590;2023-05-24T09:45:05;44.83;39.40;57.72;;
70245;Laerm;57637;49.272;8.590;2023-05-24T09:47:35;45.89;38.84;58.96;;
70245;Laerm;57637;49.272;8.590;2023-05-24T09:50:05;45.78;37.25;60.70;;
70245;Laerm;57637;49.272;8.590;2023-05-24T09:52:35;47.57;38.40;64.05;;
70245;Laerm;57637;49.272;8.590;2023-05-24T09:55:10;46.03;38.70;66.79;;
70245;Laerm;57637;49.272;8.590;2023-05-24T09:57:36;51.22;38.47;66.03;;
70245;Laerm;57637;49.272;8.590;2023-05-24T10:00:05;51.64;38.33;67.54;;
70245;Laerm;57637;49.272;8.590;2023-05-24T10:02:38;50.14;37.94;68.16;;
70245;Laerm;57637;49.272;8.590;2023-05-24T10:05:04;44.20;37.34;62.07;;
70245;Laerm;57637;49.272;8.590;2023-05-24T10:07:32;47.73;39.04;62.71;;
70245;Laerm;57637;49.272;8.590;2023-05-24T10:09:59;46.17;37.73;63.41;;
70245;Laerm;57637;49.272;8.590;2023-05-24T10:12:25;42.88;36.96;58.60;;
70245;Laerm;57637;49.272;8.590;2023-05-24T10:14:52;45.66;37.18;59.22;;
70245;Laerm;57637;49.272;8.590;2023-05-24T10:17:21;44.53;37.34;66.65;;
70245;Laerm;57637;49.272;8.590;2023-05-24T10:19:46;46.19;37.66;64.92;;
70245;Laerm;57637;49.272;8.590;2023-05-24T10:22:12;44.70;36.98;62.17;;
70245;Laerm;57637;49.272;8.590;2023-05-24T10:24:41;45.61;37.56;58.38;;
70245;Laerm;57637;49.272;8.590;2023-05-24T10:27:11;44.59;38.78;59.09;;
70245;Laerm;57637;49.272;8.590;2023-05-24T10:32:32;44.65;38.24;66.26;;
70245;Laerm;57637;49.272;8.590;2023-05-24T10:35:00;50.98;38.61;66.95;;
70245;Laerm;57637;49.272;8.590;2023-05-24T10:37:26;51.15;40.07;68.73;;
70245;Laerm;57637;49.272;8.590;2023-05-24T10:39:52;48.65;38.30;64.63;;
70245;Laerm;57637;49.272;8.590;2023-05-24T10:42:18;46.72;38.59;61.90;;
70245;Laerm;57637;49.272;8.590;2023-05-24T10:44:44;45.93;38.50;63.65;;
70245;Laerm;57637;49.272;8.590;2023-05-24T10:47:15;47.53;39.13;58.82;;
70245;Laerm;57637;49.272;8.590;2023-05-24T10:49:49;44.90;38.34;67.37;;
70245;Laerm;57637;49.272;8.590;2023-05-24T10:52:16;53.60;38.51;70.82;;
70245;Laerm;57637;49.272;8.590;2023-05-24T10:55:05;43.91;38.69;61.62;;
70245;Laerm;57637;49.272;8.590;2023-05-24T10:57:32;48.35;39.96;60.42;;
70245;Laerm;57637;49.272;8.590;2023-05-24T11:02:50;47.15;39.00;67.30;;
70245;Laerm;57637;49.272;8.590;2023-05-24T11:05:16;49.15;40.69;66.13;;
70245;Laerm;57637;49.272;8.590;2023-05-24T11:07:41;49.38;41.00;63.51;;
70245;Laerm;57637;49.272;8.590;2023-05-24T11:10:15;50.75;42.20;70.40;;
70245;Laerm;57637;49.272;8.590;2023-05-24T11:12:41;48.75;41.26;62.40;;
70245;Laerm;57637;49.272;8.590;2023-05-24T11:15:10;50.13;40.21;62.74;;
70245;Laerm;57637;49.272;8.590;2023-05-24T11:20:30;47.36;38.80;63.91;;
70245;Laerm;57637;49.272;8.590;2023-05-24T11:22:55;45.71;38.04;63.08;;
70245;Laerm;57637;49.272;8.590;2023-05-24T11:25:21;45.15;37.82;61.63;;
70245;Laerm;57637;49.272;8.590;2023-05-24T11:27:46;48.03;39.88;71.89;;
70245;Laerm;57637;49.272;8.590;2023-05-24T11:30:12;50.76;39.53;62.12;;
70245;Laerm;57637;49.272;8.590;2023-05-24T11:32:37;53.62;48.17;71.12;;
70245;Laerm;57637;49.272;8.590;2023-05-24T11:35:06;56.91;48.20;76.83;;
70245;Laerm;57637;49.272;8.590;2023-05-24T11:37:36;58.84;47.16;78.85;;
70245;Laerm;57637;49.272;8.590;2023-05-24T11:40:02;53.90;41.73;71.22;;
70245;Laerm;57637;49.272;8.590;2023-05-24T11:42:29;51.79;41.17;73.04;;
70245;Laerm;57637;49.272;8.590;2023-05-24T11:44:55;47.38;40.10;66.31;;
70245;Laerm;57637;49.272;8.590;2023-05-24T11:47:20;47.45;40.13;60.83;;
70245;Laerm;57637;49.272;8.590;2023-05-24T11:49:50;49.23;40.99;61.33;;
70245;Laerm;57637;49.272;8.590;2023-05-24T11:52:16;48.60;41.17;67.60;;
70245;Laerm;57637;49.272;8.590;2023-05-24T11:54:41;48.14;40.66;63.13;;
70245;Laerm;57637;49.272;8.590;2023-05-24T11:57:10;48.03;40.40;65.26;;
70245;Laerm;57637;49.272;8.590;2023-05-24T11:59:36;45.59;39.78;58.08;;
70245;Laerm;57637;49.272;8.590;2023-05-24T12:02:06;45.55;38.68;60.16;;
70245;Laerm;57637;49.272;8.590;2023-05-24T12:04:33;51.54;39.32;75.02;;
70245;Laerm;57637;49.272;8.590;2023-05-24T12:06:59;44.96;38.48;60.94;;
70245;Laerm;57637;49.272;8.590;2023-05-24T12:09:25;45.00;38.70;59.68;;
70245;Laerm;57637;49.272;8.590;2023-05-24T12:11:52;44.80;39.39;59.07;;
70245;Laerm;57637;49.272;8.590;2023-05-24T12:14:27;47.06;39.02;61.11;;
70245;Laerm;57637;49.272;8.590;2023-05-24T12:16:54;47.20;39.74;65.16;;
70245;Laerm;57637;49.272;8.590;2023-05-24T12:19:21;47.27;40.89;67.46;;
70245;Laerm;57637;49.272;8.590;2023-05-24T12:21:47;48.75;40.53;66.22;;
70245;Laerm;57637;49.272;8.590;2023-05-24T12:24:16;47.00;39.48;66.73;;
70245;Laerm;57637;49.272;8.590;2023-05-24T12:26:46;50.66;41.20;74.84;;
70245;Laerm;57637;49.272;8.590;2023-05-24T12:29:12;50.44;40.63;67.95;;
70245;Laerm;57637;49.272;8.590;2023-05-24T12:31:39;49.84;41.00;62.99;;
70245;Laerm;57637;49.272;8.590;2023-05-24T12:34:06;51.76;40.47;65.27;;
70245;Laerm;57637;49.272;8.590;2023-05-24T12:36:33;45.57;40.15;60.54;;
70245;Laerm;57637;49.272;8.590;2023-05-24T12:39:14;46.79;39.38;62.80;;
70245;Laerm;57637;49.272;8.590;2023-05-24T12:41:43;45.98;39.28;58.89;;
70245;Laerm;57637;49.272;8.590;2023-05-24T12:44:10;49.31;39.35;71.26;;
70245;Laerm;57637;49.272;8.590;2023-05-24T12:46:36;46.87;40.73;66.54;;
70245;Laerm;57637;49.272;8.590;2023-05-24T12:49:01;46.91;41.28;64.74;;
70245;Laerm;57637;49.272;8.590;2023-05-24T12:51:29;45.81;39.93;60.98;;
70245;Laerm;57637;49.272;8.590;2023-05-24T12:53:54;49.14;40.21;61.56;;
70245;Laerm;57637;49.272;8.590;2023-05-24T12:56:20;48.01;41.64;63.93;;
70245;Laerm;57637;49.272;8.590;2023-05-24T12:58:46;47.16;39.96;59.21;;
70245;Laerm;57637;49.272;8.590;2023-05-24T13:01:12;50.21;40.19;70.40;;
70245;Laerm;57637;49.272;8.590;2023-05-24T13:03:38;45.22;39.27;58.84;;
70245;Laerm;57637;49.272;8.590;2023-05-24T13:06:04;45.31;39.03;59.97;;
70245;Laerm;57637;49.272;8.590;2023-05-24T13:08:30;48.23;39.55;64.50;;
70245;Laerm;57637;49.272;8.590;2023-05-24T13:10:55;52.89;39.84;72.89;;
70245;Laerm;57637;49.272;8.590;2023-05-24T13:13:21;50.21;39.17;72.76;;
70245;Laerm;57637;49.272;8.590;2023-05-24T13:15:48;50.52;39.60;76.38;;
70245;Laerm;57637;49.272;8.590;2023-05-24T13:18:14;57.17;39.29;73.53;;
70245;Laerm;57637;49.272;8.590;2023-05-24T13:20:40;52.08;40.89;74.60;;
70245;Laerm;57637;49.272;8.590;2023-05-24T13:23:05;48.52;41.20;68.11;;
70245;Laerm;57637;49.272;8.590;2023-05-24T13:25:31;48.71;39.35;68.16;;
70245;Laerm;57637;49.272;8.590;2023-05-24T13:27:56;49.47;40.33;71.71;;
70245;Laerm;57637;49.272;8.590;2023-05-24T13:30:22;53.60;39.92;77.33;;
70245;Laerm;57637;49.272;8.590;2023-05-24T13:32:52;50.84;41.62;71.38;;
70245;Laerm;57637;49.272;8.590;2023-05-24T13:35:18;46.91;40.97;66.20;;
70245;Laerm;57637;49.272;8.590;2023-05-24T13:37:43;50.94;41.18;75.48;;
70245;Laerm;57637;49.272;8.590;2023-05-24T13:40:09;48.65;39.92;64.76;;
70245;Laerm;57637;49.272;8.590;2023-05-24T13:42:35;48.21;39.89;67.43;;
70245;Laerm;57637;49.272;8.590;2023-05-24T13:45:01;47.22;39.88;71.48;;
70245;Laerm;57637;49.272;8.590;2023-05-24T13:47:28;47.35;40.11;68.04;;
70245;Laerm;57637;49.272;8.590;2023-05-24T13:49:53;47.74;41.53;65.82;;
70245;Laerm;57637;49.272;8.590;2023-05-24T13:52:19;49.66;40.31;65.07;;
70245;Laerm;57637;49.272;8.590;2023-05-24T13:54:44;49.19;40.54;64.50;;
70245;Laerm;57637;49.272;8.590;2023-05-24T13:57:10;50.24;41.02;69.83;;
70245;Laerm;57637;49.272;8.590;2023-05-24T13:59:36;50.57;40.33;66.41;;
70245;Laerm;57637;49.272;8.590;2023-05-24T14:02:01;49.42;39.47;66.97;;